METAR AND TAF INFORMATION
METAR FOR YPTN
ADDS - METARS form results

(0625 UTC 20 April 2018)
Data provider http://aviationweather.gov/adds/metars/
 
METAR text: YPTN 200600Z AUTO 11013KT 9999 // SCT080 SCT100 35/14 Q1009
Conditions at: YPTN (KATHERINE/TINDAL, AU) observed 0600 UTC 20 April 2018
Temperature: 35.0°C (95°F)
Dewpoint: 14.0°C (57°F) [RH = 28%]
Pressure (altimeter): 29.79 inches Hg (1009.0 mb)
Winds: from the ESE (110 degrees) at 15 MPH (13 knots; 6.8 m/s)
Visibility: 6 or more miles (10+ km)
Ceiling: at least 12,000 feet AGL
Clouds: scattered clouds at 8000 feet AGL
scattered clouds at 10000 feet AGL
Weather: no significant weather observed at this time

METAR text: YPTN 200530Z AUTO 10013KT 9999 // SCT076 BKN087 35/14 Q1009
Conditions at: YPTN (KATHERINE/TINDAL, AU) observed 0530 UTC 20 April 2018
Temperature: 35.0°C (95°F)
Dewpoint: 14.0°C (57°F) [RH = 28%]
Pressure (altimeter): 29.79 inches Hg (1009.0 mb)
Winds: from the E (100 degrees) at 15 MPH (13 knots; 6.8 m/s)
Visibility: 6 or more miles (10+ km)
Ceiling: 8700 feet AGL
Clouds: scattered clouds at 7600 feet AGL
broken clouds at 8700 feet AGL
Weather: no significant weather observed at this time

Forecast for: YPTN (KATHERINE/TINDAL, AU)
Text: TAF YPTN 200507Z 2006/2106 10012KT CAVOK
Forecast period: 0600 to 1000 UTC 20 April 2018
Forecast type: FROM: standard forecast or significant change
Winds: from the E (100 degrees) at 14 MPH (12 knots; 6.2 m/s)
Visibility: 6 or more miles (10+ km)
Clouds: not forecast
Weather: NSW  (no significant weather)
Forecast for: YPTN (KATHERINE/TINDAL, AU)
Text: TAF YPTN 200507Z 2006/2106 10012KT CAVOK
Forecast period: 0600 to 1000 UTC 20 April 2018
Forecast type: FROM: standard forecast or significant change
Winds: from the E (100 degrees) at 14 MPH (12 knots; 6.2 m/s)
Visibility: 6 or more miles (10+ km)
Clouds: not forecast
Weather: NSW  (no significant weather)
Forecast for: YPTN (KATHERINE/TINDAL, AU)
Text: TAF YPTN 200507Z 2006/2106 10012KT CAVOK
Forecast period: 1000 UTC 20 April 2018 to 0000 UTC 21 April 2018
Forecast type: FROM: standard forecast or significant change
Winds: from the E (80 degrees) at 5 MPH (4 knots; 2.1 m/s)
Visibility: 6 or more miles (10+ km)
Clouds: not forecast
Weather: NSW  (no significant weather)
Forecast for: YPTN (KATHERINE/TINDAL, AU)
Text: TAF YPTN 200507Z 2006/2106 10012KT CAVOK
Forecast period: 1000 UTC 20 April 2018 to 0000 UTC 21 April 2018
Forecast type: FROM: standard forecast or significant change
Winds: from the E (80 degrees) at 5 MPH (4 knots; 2.1 m/s)
Visibility: 6 or more miles (10+ km)
Clouds: not forecast
Weather: NSW  (no significant weather)
Forecast for: YPTN (KATHERINE/TINDAL, AU)
Text: TAF YPTN 200507Z 2006/2106 10012KT CAVOK
Forecast period: 0000 to 0600 UTC 21 April 2018
Forecast type: FROM: standard forecast or significant change
Winds: from the E (100 degrees) at 15 MPH (13 knots; 6.8 m/s)
Visibility: 6 or more miles (10+ km)
Clouds: not forecast
Weather: NSW  (no significant weather)
Forecast for: YPTN (KATHERINE/TINDAL, AU)
Text: TAF YPTN 200507Z 2006/2106 10012KT CAVOK
Forecast period: 0000 to 0600 UTC 21 April 2018
Forecast type: FROM: standard forecast or significant change
Winds: from the E (100 degrees) at 15 MPH (13 knots; 6.8 m/s)
Visibility: 6 or more miles (10+ km)
Clouds: not forecast
Weather: NSW  (no significant weather)

 AIRPORT MAP

 RUNWAY INFORMATION
Runway 14 Runway length 9003 ft Runway width 150 ft
Runway elevation 428 ft Runway displaced threshold 0 ft Runway heading 139
Runway 32 Runway length 9003 ft Runway width 150 ft
Runway elevation 443 ft Runway displaced threshold 0 ft Runway heading 319

 AIRPORT FREQUENCIES
Type APP Name APP Frequency 120.95 MHZ
Type ATIS Name ATIS Frequency 112.3 MHZ
Type CLD Name CLNC DEL Frequency 128.1 MHZ
Type CTAF Name CTAF Frequency 119.7 MHZ
Type FSS Name BRISBANE C Frequency 122.6 MHZ
Type GND Name GND Frequency 135.85 MHZ
Type TWR Name TWR Frequency 119.7 MHZ

 AIRPORT NEAR NAVIGATION AIDS
Type TACAN Name Tindal Frequency 112300 KHZ
Type VOR Name Tindal Frequency 112300 KHZ
Type NDB Name Tindal Frequency 356 KHZ